Date,TemperatureHighF,TemperatureAvgF,TemperatureLowF,DewpointHighF,DewpointAvgF,DewpointLowF,HumidityHigh,HumidityAvg,HumidityLow,PressureMaxIn,PressureMinIn,WindSpeedMaxMPH,WindSpeedAvgMPH,GustSpeedMaxMPH,PrecipitationSumIn
2013-7-1,77.2,66.7,55.4,51.0,43.1,32.3,54,43,33,31.87,31.87,19,6,33,0.00
2013-7-2,64.6,61.4,56.7,64.0,56.9,42.6,98,87,48,31.87,31.87,12,3,20,0.55
2013-7-3,84.7,70.2,62.1,79.2,64.8,55.2,98,86,44,31.87,31.87,13,1,22,0.00
2013-7-4,84.9,70.4,59.7,67.4,59.8,54.9,96,72,39,31.87,31.87,9,0,16,0.00
2013-7-5,90.0,74.8,62.2,66.9,60.7,53.6,92,65,34,31.87,31.87,6,0,16,0.00
2013-7-6,84.9,74.5,67.6,69.8,63.8,60.8,86,71,52,31.87,31.87,7,0,12,0.00
2013-7-7,89.1,75.4,67.3,78.0,67.2,61.4,97,78,46,31.87,31.87,8,0,20,1.30
2013-7-8,84.0,75.2,71.1,71.5,66.9,62.1,89,76,52,31.87,31.87,8,1,18,0.00
2013-7-9,90.7,76.1,68.5,75.5,69.6,0.0,92,81,52,31.87,31.87,9,0,16,0.12
2013-7-10,88.2,77.3,63.1,78.1,62.9,44.1,93,66,31,31.87,31.87,13,3,23,0.00
2013-7-11,87.1,69.8,57.6,58.8,50.6,43.3,84,55,24,31.87,31.87,9,2,16,0.00
2013-7-12,88.3,70.9,57.6,61.8,52.1,43.2,86,56,24,31.87,31.87,11,1,19,0.00
2013-7-13,93.4,73.6,59.7,65.1,57.5,53.4,86,61,31,127.04,31.87,9,1,17,0.00
2013-7-14,95.4,78.4,66.0,69.8,62.0,0.0,84,60,32,31.87,31.87,7,1,13,0.00
2013-7-15,96.4,79.3,70.0,73.9,67.2,63.5,85,69,37,31.87,31.87,7,0,13,0.00
2013-7-16,99.0,82.5,71.4,74.6,67.6,58.7,88,65,31,31.87,31.87,8,0,14,0.00
2013-7-17,99.3,83.5,72.5,75.6,67.1,59.6,81,61,32,31.87,31.87,10,0,16,0.00
2013-7-18,98.8,83.7,72.9,74.8,67.1,61.6,81,60,33,31.87,31.87,100,0,167,0.00
2013-7-19,99.0,84.4,75.0,71.2,66.0,59.6,80,57,31,31.87,31.87,12,1,26,0.04
2013-7-20,94.1,79.6,69.6,68.4,60.6,48.0,84,57,23,31.87,31.87,9,1,16,0.08
2013-7-21,94.1,76.3,64.6,64.8,58.4,52.5,75,57,29,31.87,31.87,9,1,16,8.94
2013-7-22,89.4,74.6,65.3,77.9,66.0,60.7,97,78,44,31.87,31.87,8,2,14,0.51
2013-7-23,86.0,72.7,57.6,69.7,59.0,43.7,89,65,32,31.87,31.87,13,3,27,0.00
2013-7-24,81.0,63.5,49.8,49.4,45.9,0.0,86,57,30,31.87,31.87,9,2,20,0.00
2013-7-25,86.4,67.0,54.5,56.7,50.7,47.1,85,60,29,31.87,31.87,8,0,14,0.00
2013-7-26,62.1,61.1,59.4,53.3,52.1,50.4,74,72,68,31.87,31.87,7,0,12,0.00
2013-7-27,68.5,62.2,57.0,50.9,45.7,42.7,67,55,48,31.87,31.87,10,3,21,0.00
2013-7-28,70.9,59.5,55.4,63.3,50.0,44.8,88,71,62,31.87,31.87,9,1,16,0.16
2013-7-29,79.0,64.7,55.6,58.6,51.3,46.4,84,64,37,31.87,31.87,9,1,21,0.00
2013-7-30,84.4,66.0,52.5,64.5,53.6,46.2,90,67,34,31.87,31.87,9,0,14,0.00
2013-7-31,71.4,66.9,64.2,67.3,62.2,57.9,90,85,73,31.87,31.87,6,0,10,0.20